createdAt,value
2022-10-15T00:01:47.947Z,69.79
2022-10-15T00:04:54.080Z,70.17
2022-10-15T00:08:00.183Z,70.23
2022-10-15T00:11:12.312Z,70.17
2022-10-15T00:14:18.735Z,69.92
2022-10-15T00:17:25.043Z,69.84
2022-10-15T00:20:31.763Z,69.92
2022-10-15T00:23:38.448Z,70.00
2022-10-15T00:26:44.670Z,69.90
2022-10-15T00:29:49.226Z,69.84
2022-10-15T00:32:55.258Z,70.07
2022-10-15T00:36:06.943Z,70.04
2022-10-15T00:39:13.657Z,69.94
2022-10-15T00:42:20.206Z,69.85
2022-10-15T00:45:26.814Z,69.99
2022-10-15T00:48:34.089Z,70.07
2022-10-15T00:51:44.362Z,70.09
2022-10-15T00:54:54.420Z,69.98
2022-10-15T00:58:04.521Z,70.09
2022-10-15T01:01:10.880Z,70.16
2022-10-15T01:04:19.060Z,70.04
2022-10-15T01:07:26.268Z,70.04
2022-10-15T01:10:39.365Z,70.27
2022-10-15T01:13:55.659Z,70.16
2022-10-15T01:17:06.942Z,70.03
2022-10-15T01:20:49.371Z,70.04
2022-10-15T01:24:43.903Z,70.03
2022-10-15T01:27:56.471Z,69.89
2022-10-15T01:31:12.565Z,69.71
2022-10-15T01:34:25.642Z,69.95
2022-10-15T01:37:39.394Z,69.78
2022-10-15T01:40:49.092Z,69.68
2022-10-15T01:44:01.796Z,69.72
2022-10-15T01:47:11.333Z,69.89
2022-10-15T01:50:21.675Z,70.15
2022-10-15T01:53:30.383Z,70.49
2022-10-15T01:56:38.842Z,70.66
2022-10-15T01:59:45.972Z,70.77
2022-10-15T02:02:52.371Z,70.35
2022-10-15T02:06:05.116Z,70.64
2022-10-15T02:09:17.811Z,70.55
2022-10-15T02:12:38.780Z,69.76
2022-10-15T02:15:54.839Z,69.88
2022-10-15T02:19:06.842Z,70.15
2022-10-15T02:22:20.625Z,69.66
2022-10-15T02:25:29.326Z,69.52
2022-10-15T02:28:38.913Z,69.32
2022-10-15T02:31:48.906Z,69.52
2022-10-15T02:34:55.852Z,69.70
2022-10-15T02:38:07.245Z,69.67
2022-10-15T02:41:14.270Z,69.45
2022-10-15T02:44:20.407Z,69.28
2022-10-15T02:50:35.874Z,69.62
2022-10-15T02:53:40.372Z,69.47
2022-10-15T02:56:46.482Z,69.67
2022-10-15T02:59:52.670Z,69.73
2022-10-15T03:02:57.546Z,69.95
2022-10-15T03:06:03.632Z,70.19
2022-10-15T03:09:09.630Z,70.01
2022-10-15T03:12:15.902Z,69.78
2022-10-15T03:15:20.878Z,69.89
2022-10-15T03:18:26.959Z,70.14
2022-10-15T03:21:33.028Z,70.20
2022-10-15T03:24:39.093Z,70.72
2022-10-15T03:27:45.280Z,71.16
2022-10-15T03:30:49.826Z,71.59
2022-10-15T03:33:56.014Z,72.06
2022-10-15T03:37:00.510Z,72.30
2022-10-15T03:40:13.495Z,72.44
2022-10-15T03:43:20.763Z,71.77
2022-10-15T03:46:26.848Z,71.09
2022-10-15T03:49:32.892Z,70.77
2022-10-15T03:52:39.403Z,70.68
2022-10-15T03:55:45.531Z,70.70
2022-10-15T03:58:50.812Z,70.41
2022-10-15T04:01:57.034Z,70.20
2022-10-15T04:05:01.609Z,69.76
2022-10-15T04:08:08.477Z,70.03
2022-10-15T04:11:14.573Z,69.41
2022-10-15T04:14:20.682Z,69.12
2022-10-15T04:17:26.753Z,68.81
2022-10-15T04:20:32.792Z,68.70
2022-10-15T04:23:39.276Z,68.80
2022-10-15T04:26:45.427Z,68.95
2022-10-15T04:29:50.138Z,68.38
2022-10-15T04:32:56.470Z,68.93
2022-10-15T04:36:05.506Z,69.19
2022-10-15T04:39:13.844Z,68.68
2022-10-15T04:42:21.249Z,68.64
2022-10-15T04:45:27.344Z,68.18
2022-10-15T04:48:40.376Z,67.85
2022-10-15T04:51:49.186Z,67.91
2022-10-15T04:54:55.259Z,69.02
2022-10-15T04:58:01.283Z,69.72
2022-10-15T05:01:12.182Z,69.87
2022-10-15T05:04:18.239Z,69.71
2022-10-15T05:07:24.419Z,70.66
2022-10-15T05:10:31.139Z,70.63
2022-10-15T05:13:37.693Z,70.18
2022-10-15T05:16:43.853Z,69.11
2022-10-15T05:19:48.403Z,69.35
2022-10-15T05:22:54.620Z,70.15
2022-10-15T05:26:01.996Z,71.35
2022-10-15T05:29:08.063Z,70.64
2022-10-15T05:32:14.851Z,69.76
2022-10-15T05:35:21.006Z,68.71
2022-10-15T05:38:26.997Z,67.83
2022-10-15T05:41:33.283Z,67.84
2022-10-15T05:44:37.800Z,68.30
2022-10-15T05:47:43.936Z,67.97
2022-10-15T05:50:48.379Z,67.99
2022-10-15T05:53:57.197Z,68.05
2022-10-15T05:57:03.359Z,67.79
2022-10-15T06:00:09.460Z,68.17
2022-10-15T06:03:16.839Z,69.07
2022-10-15T06:06:24.530Z,69.21
2022-10-15T06:09:30.968Z,69.64
2022-10-15T06:12:38.447Z,69.56
2022-10-15T06:15:45.868Z,69.63
2022-10-15T06:18:52.622Z,69.83
2022-10-15T06:21:58.712Z,70.27
2022-10-15T06:25:05.322Z,71.23
2022-10-15T06:28:11.740Z,72.12
2022-10-15T06:31:17.876Z,72.48
2022-10-15T06:34:22.270Z,72.79
2022-10-15T06:37:30.029Z,72.95
2022-10-15T06:40:36.379Z,72.96
2022-10-15T06:43:42.497Z,72.72
2022-10-15T06:46:47.027Z,72.87
2022-10-15T06:49:54.297Z,72.85
2022-10-15T06:53:00.574Z,72.74
2022-10-15T06:56:07.647Z,72.86
2022-10-15T06:59:14.384Z,73.29
2022-10-15T07:02:20.860Z,73.26
2022-10-15T07:05:27.125Z,73.14
2022-10-15T07:08:31.687Z,72.94
2022-10-15T07:11:37.815Z,73.27
2022-10-15T07:14:42.623Z,73.17
2022-10-15T07:17:51.800Z,73.06
2022-10-15T07:20:59.884Z,72.73
2022-10-15T07:24:07.020Z,72.57
2022-10-15T07:27:20.630Z,72.52
2022-10-15T07:30:28.769Z,72.05
2022-10-15T07:33:35.641Z,71.66
2022-10-15T07:36:41.893Z,71.45
2022-10-15T07:39:47.915Z,71.17
2022-10-15T07:42:58.505Z,70.51
2022-10-15T07:46:05.359Z,69.99
2022-10-15T07:49:11.839Z,70.42
2022-10-15T07:52:18.037Z,70.05
2022-10-15T07:55:22.479Z,69.88
2022-10-15T07:58:30.560Z,69.87
2022-10-15T08:01:36.996Z,69.02
2022-10-15T08:04:43.182Z,69.39
2022-10-15T08:07:47.789Z,69.22
2022-10-15T08:10:53.881Z,69.47
2022-10-15T08:13:58.346Z,69.20
2022-10-15T08:17:05.220Z,68.44
2022-10-15T08:20:12.931Z,68.21
2022-10-15T08:23:19.491Z,67.56
2022-10-15T08:26:26.691Z,67.38
2022-10-15T08:29:32.823Z,67.14
2022-10-15T08:32:37.463Z,66.42
2022-10-15T08:35:45.472Z,65.96
2022-10-15T08:38:51.520Z,65.75
2022-10-15T08:41:57.721Z,65.46
2022-10-15T08:45:08.743Z,64.97
2022-10-15T08:48:18.625Z,64.50
2022-10-15T08:51:27.973Z,64.10
2022-10-15T08:54:36.659Z,64.60
2022-10-15T08:57:48.889Z,63.95
2022-10-15T09:00:59.493Z,63.63
2022-10-15T09:04:23.209Z,63.47
2022-10-15T09:07:38.208Z,62.46
2022-10-15T09:10:48.599Z,62.86
2022-10-15T09:13:55.229Z,62.92
2022-10-15T09:17:06.944Z,62.50
2022-10-15T09:20:19.626Z,62.36
2022-10-15T09:23:29.890Z,61.12
2022-10-15T09:26:56.048Z,59.34
2022-10-15T09:30:08.363Z,58.84
2022-10-15T09:33:19.434Z,62.46
2022-10-15T09:36:38.102Z,62.93
2022-10-15T09:39:55.744Z,59.65
2022-10-15T09:43:04.084Z,58.55
2022-10-15T09:46:12.275Z,60.40
2022-10-15T09:49:29.387Z,60.76
2022-10-15T09:52:55.215Z,61.36
2022-10-15T09:56:09.879Z,59.16
2022-10-15T09:59:20.544Z,57.54
2022-10-15T10:02:28.781Z,58.54
2022-10-15T10:05:37.525Z,60.80
2022-10-15T10:08:51.002Z,59.65
2022-10-15T10:12:00.143Z,57.46
2022-10-15T10:15:09.939Z,57.17
2022-10-15T10:18:23.627Z,58.25
2022-10-15T10:21:33.688Z,60.51
2022-10-15T10:24:39.896Z,59.84
2022-10-15T10:27:48.357Z,58.61
2022-10-15T10:31:04.513Z,57.79
2022-10-15T10:34:18.584Z,56.55
2022-10-15T10:37:25.865Z,56.66
2022-10-15T10:40:36.569Z,56.95
2022-10-15T10:43:54.202Z,56.75
2022-10-15T10:47:15.469Z,56.87
2022-10-15T10:50:34.711Z,56.79
2022-10-15T10:53:50.483Z,58.50
2022-10-15T10:56:55.118Z,56.13
2022-10-15T11:00:02.099Z,58.66
2022-10-15T11:03:15.940Z,56.76
2022-10-15T11:06:51.255Z,57.29
2022-10-15T11:09:59.390Z,58.88
2022-10-15T11:13:17.468Z,58.33
2022-10-15T11:16:34.553Z,61.13
2022-10-15T11:23:28.984Z,60.23
2022-10-15T11:26:59.050Z,56.54
2022-10-15T11:30:12.154Z,55.38
2022-10-15T11:33:33.234Z,55.62
2022-10-15T11:36:55.199Z,57.26
2022-10-15T11:40:21.244Z,54.86
2022-10-15T11:43:43.053Z,57.14
2022-10-15T11:46:56.792Z,56.84
2022-10-15T11:50:17.987Z,57.06
2022-10-15T11:53:59.782Z,53.94
2022-10-15T11:57:10.350Z,55.02
2022-10-15T12:00:31.274Z,54.76
2022-10-15T12:03:43.829Z,54.48
2022-10-15T12:06:53.742Z,54.26
2022-10-15T12:10:08.005Z,55.12
2022-10-15T12:13:22.663Z,54.71
2022-10-15T12:16:35.768Z,53.97
2022-10-15T12:19:47.155Z,53.97
2022-10-15T12:23:01.507Z,54.50
2022-10-15T12:26:33.444Z,55.76
2022-10-15T12:29:39.627Z,56.04
2022-10-15T12:32:47.808Z,55.74
2022-10-15T12:35:58.356Z,56.04
2022-10-15T12:39:16.061Z,56.67
2022-10-15T12:42:36.108Z,57.04
2022-10-15T12:45:50.520Z,57.94
2022-10-15T12:48:58.375Z,58.45
2022-10-15T12:52:25.362Z,57.96
2022-10-15T12:55:37.289Z,58.65
2022-10-15T12:58:47.605Z,58.33
2022-10-15T13:01:54.748Z,58.41
2022-10-15T13:05:00.991Z,58.62
2022-10-15T13:08:14.303Z,58.69
2022-10-15T13:11:25.711Z,58.91
2022-10-15T13:14:36.928Z,59.22
2022-10-15T13:17:43.140Z,59.26
2022-10-15T13:20:51.200Z,59.68
2022-10-15T13:23:57.446Z,59.98
2022-10-15T13:27:05.687Z,58.81
2022-10-15T13:30:16.555Z,60.75
2022-10-15T13:33:23.686Z,60.23
2022-10-15T13:36:33.855Z,59.93
2022-10-15T13:39:41.438Z,59.84
2022-10-15T13:46:19.981Z,61.31
2022-10-15T13:49:28.793Z,60.54
2022-10-15T13:52:39.374Z,59.78
2022-10-15T13:55:49.779Z,59.96
2022-10-15T13:58:57.400Z,59.96
2022-10-15T14:02:05.036Z,59.11
2022-10-15T14:05:24.112Z,58.98
2022-10-15T14:08:35.099Z,59.77
2022-10-15T14:11:41.264Z,59.00
2022-10-15T14:14:49.385Z,59.70
2022-10-15T14:17:55.644Z,59.95
2022-10-15T14:21:02.395Z,60.22
2022-10-15T14:24:15.727Z,60.32
2022-10-15T14:27:25.164Z,60.33
2022-10-15T14:30:35.948Z,59.45
2022-10-15T14:33:46.640Z,58.94
2022-10-15T14:36:52.875Z,58.51
2022-10-15T14:40:12.902Z,58.91
2022-10-15T14:43:20.154Z,58.21
2022-10-15T14:46:26.537Z,58.30
2022-10-15T14:49:35.885Z,59.34
2022-10-15T14:52:47.820Z,60.23
2022-10-15T14:56:00.374Z,61.89
2022-10-15T14:59:09.200Z,65.56
2022-10-15T15:02:17.935Z,66.83
2022-10-15T15:05:26.412Z,65.30
2022-10-15T15:08:32.590Z,63.72
2022-10-15T15:11:39.386Z,62.93
2022-10-15T15:14:45.641Z,63.39
2022-10-15T15:17:52.051Z,63.08
2022-10-15T15:21:02.639Z,62.93
2022-10-15T15:24:10.103Z,61.96
2022-10-15T15:27:25.890Z,60.70
2022-10-15T15:30:31.885Z,58.70
2022-10-15T15:33:37.861Z,58.71
2022-10-15T15:36:42.344Z,60.23
2022-10-15T15:39:50.524Z,61.38
2022-10-15T15:42:56.767Z,64.17
2022-10-15T15:46:02.798Z,64.72
2022-10-15T15:49:07.297Z,63.98
2022-10-15T15:52:17.117Z,63.41
2022-10-15T15:55:23.704Z,59.76
2022-10-15T15:58:29.973Z,58.06
2022-10-15T16:01:36.125Z,60.05
2022-10-15T16:04:42.294Z,61.14
2022-10-15T16:07:49.215Z,63.27
2022-10-15T16:10:55.218Z,63.62
2022-10-15T16:13:59.688Z,62.39
2022-10-15T16:17:05.803Z,62.20
2022-10-15T16:20:13.951Z,61.46
2022-10-15T16:23:20.080Z,61.26
2022-10-15T16:26:26.587Z,60.88
2022-10-15T16:29:32.639Z,60.50
2022-10-15T16:32:37.242Z,59.56
2022-10-15T16:35:43.377Z,58.08
2022-10-15T16:38:49.889Z,60.10
2022-10-15T16:41:56.267Z,61.04
2022-10-15T16:45:02.495Z,63.16
2022-10-15T16:48:09.408Z,63.67
2022-10-15T16:51:17.472Z,62.80
2022-10-15T16:54:23.673Z,62.36
2022-10-15T16:57:30.015Z,62.23
2022-10-15T17:00:36.169Z,62.57
2022-10-15T17:03:43.406Z,62.22
2022-10-15T17:06:50.227Z,62.30
2022-10-15T17:09:56.735Z,62.03
2022-10-15T17:13:02.780Z,61.76
2022-10-15T17:16:10.932Z,61.58
2022-10-15T17:19:19.115Z,61.36
2022-10-15T17:22:25.272Z,61.48
2022-10-15T17:25:31.579Z,61.50
2022-10-15T17:28:36.076Z,61.48
2022-10-15T17:31:42.052Z,61.71
2022-10-15T17:34:48.219Z,61.10
2022-10-15T17:37:52.849Z,61.25
2022-10-15T17:40:59.429Z,61.53
2022-10-15T17:44:06.139Z,61.59
2022-10-15T17:47:12.491Z,61.68
2022-10-15T17:50:19.311Z,61.43
2022-10-15T17:53:25.472Z,61.40
2022-10-15T17:56:31.469Z,61.92
2022-10-15T17:59:37.618Z,62.13
2022-10-15T18:02:42.290Z,62.11
2022-10-15T18:05:48.722Z,62.45
2022-10-15T18:08:55.742Z,62.23
2022-10-15T18:12:03.034Z,62.30
2022-10-15T18:15:10.987Z,61.94
2022-10-15T18:18:17.597Z,62.25
2022-10-15T18:21:25.699Z,62.28
2022-10-15T18:24:33.167Z,61.60
2022-10-15T18:27:39.274Z,62.34
2022-10-15T18:30:43.903Z,62.66
2022-10-15T18:33:52.520Z,62.74
2022-10-15T18:36:58.846Z,62.55
2022-10-15T18:40:05.307Z,62.56
2022-10-15T18:43:11.376Z,62.50
2022-10-15T18:46:15.835Z,62.57
2022-10-15T18:49:22.930Z,62.61
2022-10-15T18:52:39.551Z,62.55
2022-10-15T18:55:46.741Z,62.21
2022-10-15T18:58:53.547Z,61.86
2022-10-15T19:01:59.626Z,60.15
2022-10-15T19:05:04.663Z,61.07
2022-10-15T19:08:10.865Z,61.36
2022-10-15T19:11:19.219Z,60.99
2022-10-15T19:14:28.197Z,61.42
2022-10-15T19:17:34.351Z,61.48
2022-10-15T19:20:39.026Z,61.58
2022-10-15T19:23:45.258Z,61.76
2022-10-15T19:26:52.733Z,62.03
2022-10-15T19:29:59.090Z,62.11
2022-10-15T19:33:08.297Z,62.27
2022-10-15T19:36:19.768Z,62.38
2022-10-15T19:39:26.687Z,62.49
2022-10-15T19:42:32.857Z,62.47
2022-10-15T19:45:39.258Z,62.63
2022-10-15T19:48:45.550Z,62.85
2022-10-15T19:51:52.431Z,62.41
2022-10-15T19:54:58.573Z,62.44
2022-10-15T19:58:03.197Z,62.60
2022-10-15T20:01:09.538Z,62.69
2022-10-15T20:04:15.804Z,62.57
2022-10-15T20:07:22.019Z,62.47
2022-10-15T20:10:28.205Z,62.66
2022-10-15T20:13:32.687Z,62.75
2022-10-15T20:16:39.179Z,62.74
2022-10-15T20:19:45.263Z,62.61
2022-10-15T20:22:49.759Z,62.70
2022-10-15T20:25:56.198Z,62.68
2022-10-15T20:29:02.516Z,62.46
2022-10-15T20:32:23.360Z,62.59
2022-10-15T20:35:40.936Z,62.68
2022-10-15T20:38:47.186Z,62.87
2022-10-15T20:41:53.861Z,63.21
2022-10-15T20:45:00.096Z,63.42
2022-10-15T20:48:07.158Z,63.50
2022-10-15T20:51:16.553Z,63.52
2022-10-15T20:54:22.922Z,63.57
2022-10-15T20:57:29.411Z,63.65
2022-10-15T21:00:35.631Z,63.92
2022-10-15T21:03:41.720Z,64.20
2022-10-15T21:06:46.277Z,64.36
2022-10-15T21:09:52.410Z,64.27
2022-10-15T21:12:56.942Z,64.07
2022-10-15T21:16:05.752Z,64.07
2022-10-15T21:19:11.836Z,64.05
2022-10-15T21:22:17.980Z,63.98
2022-10-15T21:25:24.150Z,64.05
2022-10-15T21:28:28.727Z,64.13
2022-10-15T21:31:34.875Z,64.58
2022-10-15T21:37:52.023Z,64.90
2022-10-15T21:40:56.501Z,64.96
2022-10-15T21:44:04.130Z,64.94
2022-10-15T21:47:12.912Z,64.82
2022-10-15T21:50:21.370Z,64.77
2022-10-15T21:53:27.664Z,64.62
2022-10-15T21:56:34.334Z,64.62
2022-10-15T21:59:40.456Z,64.62
2022-10-15T22:02:45.008Z,65.07
2022-10-15T22:05:51.316Z,65.54
2022-10-15T22:08:58.000Z,65.55
2022-10-15T22:12:04.138Z,65.55
2022-10-15T22:15:09.627Z,65.43
2022-10-15T22:18:15.694Z,65.33
2022-10-15T22:21:23.546Z,65.16
2022-10-15T22:24:30.427Z,65.44
2022-10-15T22:27:36.595Z,65.70
2022-10-15T22:30:41.187Z,66.02
2022-10-15T22:33:47.888Z,66.24
2022-10-15T22:36:54.215Z,65.98
2022-10-15T22:40:00.339Z,66.18
2022-10-15T22:43:05.523Z,66.57
2022-10-15T22:46:12.114Z,66.71
2022-10-15T22:49:20.515Z,66.51
2022-10-15T22:52:26.698Z,66.46
2022-10-15T22:55:33.203Z,66.62
2022-10-15T22:58:37.839Z,66.66
2022-10-15T23:01:45.471Z,66.82
2022-10-15T23:04:51.712Z,66.83
2022-10-15T23:07:56.334Z,67.06
2022-10-15T23:11:10.339Z,67.45
2022-10-15T23:14:18.613Z,67.69
2022-10-15T23:17:24.797Z,67.68
2022-10-15T23:20:31.500Z,67.81
2022-10-15T23:23:39.987Z,67.93
2022-10-15T23:26:44.519Z,67.79
2022-10-15T23:29:57.017Z,67.86
2022-10-15T23:33:13.759Z,67.65
2022-10-15T23:36:20.842Z,67.52
2022-10-15T23:39:28.135Z,67.32
2022-10-15T23:42:34.235Z,67.31
2022-10-15T23:45:41.649Z,67.41
2022-10-15T23:48:48.567Z,67.40
2022-10-15T23:51:54.782Z,67.31
2022-10-15T23:54:59.531Z,67.22
2022-10-15T23:58:05.758Z,67.40
